ADDS METAR Data INFO
IDs: Format: Raw Decoded Include TAF

Data at: 0932 UTC 11 Dec 2017

KTKI 110853Z AUTO 00000KT 10SM CLR 01/M04 A3027 RMK AO2 SLP260 T00111039 53002
KTKI 110753Z AUTO 34003KT 10SM CLR 01/M04 A3026 RMK AO2 SLP256 T00061039
KTKI 110653Z AUTO 00000KT 10SM CLR 02/M03 A3027 RMK AO2 SLP258 T00221033
KTKI 110553Z AUTO 00000KT 10SM CLR 02/M03 A3027 RMK AO2 SLP259 T00171033 10167 20011 402061039 58004
KTKI 110453Z AUTO 00000KT 10SM CLR 04/M04 A3028 RMK AO2 SLP261 T00391039
KTKI 110353Z 34003KT 10SM CLR 06/M04 A3028 RMK AO2 SLP264 T00561044
KTKI 110253Z 00000KT 10SM CLR 08/M02 A3028 RMK AO2 SLP265 T00831017 50000
KTKI 110153Z 24005KT 10SM CLR 13/M06 A3028 RMK AO2 SLP266 T01331056
KTKI 110053Z 25005KT 10SM CLR 14/M06 A3028 RMK AO2 SLP266 T01441056
KTKI 102353Z 25004KT 10SM CLR 17/M06 A3028 RMK AO2 SLP264 T01671061 10206 20167 55001
KTKI 102253Z 23007KT 10SM CLR 19/M07 A3028 RMK AO2 SLP263 T01941072
KTKI 102153Z 24008KT 10SM CLR 21/M07 A3028 RMK AO2 SLP262 T02061067
KTKI 102053Z AUTO 24010KT 10SM CLR 20/M06 A3028 RMK AO2 SLP264 T02001056 58024
KTKI 101953Z 28010KT 10SM CLR 19/M04 A3031 RMK AO2 SLP271 T01941044
KTKI 101853Z 28009KT 10SM CLR 18/M03 A3034 RMK AO2 SLP283 T01781033
KTKI 101753Z 26009KT 10SM CLR 17/M04 A3035 RMK AO2 SLP289 T01671039 10167 21039 58013
KTKI 101653Z 27009KT 10SM CLR 14/M03 A3038 RMK AO2 SLP296 T01441033
KTKI 101553Z 28007KT 10SM CLR 11/M03 A3039 RMK AO2 SLP301 T01111028
KTKI 101453Z 00000KT 10SM CLR 03/00 A3039 RMK AO2 SLP305 T00330000 51013
KTKI 101353Z 00000KT 10SM CLR M03/M04 A3038 RMK AO2 SLP304 T10281039
KTKI 101253Z 00000KT 10SM CLR M02/M04 A3037 RMK AO2 SLP299 T10221044
KTKI 101153Z 00000KT 10SM CLR M03/M04 A3036 RMK AO2 SLP293 T10281044 10022 21028 55000
KTKI 101053Z AUTO 32003KT 10SM CLR M02/M05 A3035 RMK AO2 SLP288 T10221050
KTKI 100953Z AUTO 00000KT 10SM CLR M01/M04 A3035 RMK AO2 SLP291 T10111044
KTKI 100853Z AUTO 00000KT 10SM CLR M02/M05 A3036 RMK AO2 SLP291 T10221050 58004
KTKI 100753Z AUTO 00000KT 10SM CLR M01/M04 A3036 RMK AO2 SLP293 T10061044
KTKI 100653Z AUTO 00000KT 10SM CLR 00/M03 A3037 RMK AO2 SLP295 T00001033
KTKI 100553Z AUTO 00000KT 10SM CLR 01/M04 A3037 RMK AO2 SLP295 T00061039 10106 20006 401501044 53015
KTKI 100453Z AUTO 00000KT 10SM CLR 02/M04 A3035 RMK AO2 SLP290 T00171039
KTKI 100353Z 30003KT 10SM CLR 04/M04 A3033 RMK AO2 SLP284 T00441039
KTKI 100253Z 29003KT 10SM CLR 06/M03 A3032 RMK AO2 SLP280 T00611033 53014
KTKI 100153Z 32003KT 10SM CLR 06/M04 A3030 RMK AO2 SLP275 T00611039
KTKI 100053Z 33004KT 10SM CLR 10/M04 A3029 RMK AO2 SLP270 T01001044
KTKI 092353Z 34006KT 10SM CLR 09/M04 A3028 RMK AO2 SLP267 T00941044 10150 20094 53014
KTKI 092253Z 34008KT 10SM CLR 13/M04 A3026 RMK AO2 SLP261 T01281044
KTKI 092153Z 35010G18KT 10SM CLR 14/M04 A3025 RMK AO2 SLP254 T01391039